Time;durP1;ratioP1;P1;durP2;ratioP2;P2;SDS_P1;SDS_P2;PMS_P1;PMS_P2;Temp;Humidity;BMP_temperature;BMP_pressure;BME280_temperature;BME280_humidity;BME280_pressure;Samples;Min_cycle;Max_cycle;Signal;HPM_P1;HPM_P2
2021/07/06 00:00:57;;;;;;;10.65;8.98;;;21.90;99.90;;;;;;5074022;28;20638;-73
2021/07/06 00:03:25;;;;;;;9.57;8.60;;;21.90;99.90;;;;;;5074388;28;20227;-74
2021/07/06 00:05:52;;;;;;;8.75;7.20;;;21.90;99.90;;;;;;5074251;28;20201;-74
2021/07/06 00:08:20;;;;;;;9.48;8.57;;;21.80;99.90;;;;;;5074400;28;20335;-73
2021/07/06 00:10:47;;;;;;;8.93;7.90;;;21.80;99.90;;;;;;5073582;28;20251;-74
2021/07/06 00:13:14;;;;;;;9.57;8.77;;;21.70;99.90;;;;;;5073761;28;20259;-73
2021/07/06 00:15:41;;;;;;;11.15;9.48;;;21.70;99.90;;;;;;5073642;28;20251;-75
2021/07/06 00:18:09;;;;;;;10.00;8.40;;;21.60;99.90;;;;;;5074162;28;20222;-74
2021/07/06 00:20:36;;;;;;;14.57;7.90;;;21.70;99.90;;;;;;5074340;28;20264;-73
2021/07/06 00:23:04;;;;;;;9.20;8.30;;;21.60;99.90;;;;;;5073917;28;20398;-76
2021/07/06 00:25:33;;;;;;;8.88;7.72;;;21.70;99.90;;;;;;5073614;28;20685;-74
2021/07/06 00:28:00;;;;;;;8.88;7.50;;;21.70;99.90;;;;;;5073068;28;20211;-74
2021/07/06 00:30:27;;;;;;;9.93;8.35;;;21.80;99.90;;;;;;5073978;28;20218;-75
2021/07/06 00:32:54;;;;;;;8.60;7.80;;;21.40;99.90;;;;;;5070556;28;20203;-76
2021/07/06 00:35:22;;;;;;;9.68;8.63;;;21.30;99.90;;;;;;5073669;28;20247;-75
2021/07/06 00:37:49;;;;;;;9.20;8.27;;;21.30;99.90;;;;;;5072925;28;20230;-74
2021/07/06 00:40:16;;;;;;;8.23;7.53;;;21.30;99.90;;;;;;5073243;28;20205;-75
2021/07/06 00:42:48;;;;;;;10.05;9.15;;;21.30;99.90;;;;;;5073216;28;20206;-76
2021/07/06 00:45:17;;;;;;;10.98;7.90;;;21.40;99.90;;;;;;5073633;28;20202;-75
2021/07/06 00:47:46;;;;;;;9.32;8.43;;;21.40;99.90;;;;;;5073042;28;20661;-75
2021/07/06 00:50:15;;;;;;;9.50;8.57;;;21.50;99.90;;;;;;5073152;28;20665;-75
2021/07/06 00:52:42;;;;;;;8.77;7.97;;;21.50;99.90;;;;;;5072749;28;20742;-74
2021/07/06 00:55:10;;;;;;;9.60;8.75;;;21.60;99.90;;;;;;5073849;28;20218;-76
2021/07/06 00:57:38;;;;;;;10.70;8.77;;;21.60;99.90;;;;;;5072943;28;20233;-78
2021/07/06 01:00:11;;;;;;;9.65;8.75;;;21.60;99.90;;;;;;5073424;28;20217;-79
2021/07/06 01:02:38;;;;;;;8.70;7.88;;;21.50;99.90;;;;;;5073173;28;20678;-74
2021/07/06 01:05:08;;;;;;;10.18;9.27;;;21.60;99.90;;;;;;5073342;28;20210;-78
2021/07/06 01:07:35;;;;;;;7.72;7.13;;;21.60;99.90;;;;;;5072737;28;20210;-80
2021/07/06 01:10:03;;;;;;;10.48;8.57;;;21.60;99.90;;;;;;5072122;28;20202;-77
2021/07/06 01:12:31;;;;;;;8.82;7.93;;;21.50;99.90;;;;;;5072947;28;20209;-75
2021/07/06 01:14:58;;;;;;;10.18;9.23;;;21.60;99.90;;;;;;5072565;28;20208;-76
2021/07/06 01:17:28;;;;;;;8.50;7.70;;;21.60;99.90;;;;;;5072814;28;20256;-78
2021/07/06 01:19:55;;;;;;;8.75;7.88;;;21.70;99.90;;;;;;5072393;28;20252;-76
2021/07/06 01:22:28;;;;;;;9.93;8.10;;;21.70;99.90;;;;;;5072969;28;20252;-77
2021/07/06 01:24:55;;;;;;;10.45;9.45;;;21.70;99.90;;;;;;5071758;28;20210;-76
2021/07/06 01:27:22;;;;;;;10.82;9.60;;;21.80;99.90;;;;;;5072634;28;20252;-75
2021/07/06 01:29:49;;;;;;;8.98;8.27;;;21.70;99.90;;;;;;5071927;28;20211;-75
2021/07/06 01:32:16;;;;;;;12.68;10.13;;;21.70;99.90;;;;;;5072576;28;20205;-73
2021/07/06 01:34:44;;;;;;;14.18;10.23;;;21.70;99.90;;;;;;5072146;28;20267;-79
2021/07/06 01:37:11;;;;;;;14.38;9.93;;;21.60;99.90;;;;;;5072817;28;20263;-73
2021/07/06 01:39:39;;;;;;;11.05;10.00;;;21.60;99.90;;;;;;5072633;28;20242;-73
2021/07/06 01:42:06;;;;;;;11.45;10.07;;;21.60;99.90;;;;;;5072393;28;20206;-73
2021/07/06 01:44:33;;;;;;;11.00;9.90;;;21.60;99.90;;;;;;5072277;28;20202;-77
2021/07/06 01:47:00;;;;;;;10.73;9.82;;;21.70;99.90;;;;;;5071551;28;20264;-81
2021/07/06 01:49:27;;;;;;;13.68;11.60;;;21.70;99.90;;;;;;5072433;28;20236;-81
2021/07/06 01:51:54;;;;;;;10.95;9.85;;;21.70;99.90;;;;;;5071852;28;20210;-75
2021/07/06 01:54:21;;;;;;;10.52;9.52;;;21.70;99.90;;;;;;5072406;28;20696;-75
2021/07/06 01:56:49;;;;;;;13.20;11.13;;;21.80;99.90;;;;;;5071921;28;20264;-75
2021/07/06 01:59:17;;;;;;;12.80;9.77;;;21.80;99.90;;;;;;5071873;28;20283;-75
2021/07/06 02:01:45;;;;;;;9.43;8.52;;;21.80;99.90;;;;;;5071603;28;20251;-74
2021/07/06 02:04:14;;;;;;;9.93;9.00;;;21.70;99.90;;;;;;5071889;28;20210;-75
2021/07/06 02:06:41;;;;;;;12.20;10.90;;;21.80;99.90;;;;;;5071840;28;20210;-75
2021/07/06 02:09:08;;;;;;;11.05;10.15;;;21.80;99.90;;;;;;5071856;28;20206;-75
2021/07/06 02:11:35;;;;;;;11.73;10.38;;;21.80;99.90;;;;;;5072380;28;20207;-75
2021/07/06 02:14:04;;;;;;;12.13;9.93;;;21.80;99.90;;;;;;5071035;28;20739;-75
2021/07/06 02:16:31;;;;;;;11.20;10.18;;;21.90;99.90;;;;;;5071822;28;20206;-76
2021/07/06 02:18:58;;;;;;;11.38;10.27;;;21.90;99.90;;;;;;5071251;28;20238;-79
2021/07/06 02:21:25;;;;;;;10.70;9.70;;;22.00;99.90;;;;;;5071629;28;20655;-75
2021/07/06 02:23:52;;;;;;;11.13;10.13;;;21.90;99.90;;;;;;5070947;28;20213;-75
2021/07/06 02:26:19;;;;;;;13.25;10.48;;;22.00;99.90;;;;;;5071349;28;20275;-79
2021/07/06 02:28:46;;;;;;;11.73;9.50;;;21.90;99.90;;;;;;5071164;28;20202;-75
2021/07/06 02:31:15;;;;;;;10.50;8.93;;;22.00;99.90;;;;;;5071401;28;20235;-75
2021/07/06 02:33:42;;;;;;;9.90;9.02;;;22.00;99.90;;;;;;5070980;28;20206;-75
2021/07/06 02:36:09;;;;;;;12.45;11.38;;;22.00;99.90;;;;;;5071721;28;20634;-76
2021/07/06 02:38:37;;;;;;;11.73;10.63;;;22.00;99.90;;;;;;5071222;28;20233;-75
2021/07/06 02:41:04;;;;;;;11.75;10.45;;;21.90;99.90;;;;;;5070647;28;20202;-75
2021/07/06 02:43:31;;;;;;;12.32;10.02;;;21.90;99.90;;;;;;5070839;28;20207;-75
2021/07/06 02:45:58;;;;;;;9.70;8.80;;;21.90;99.90;;;;;;5070779;28;20251;-78
2021/07/06 02:48:27;;;;;;;10.77;9.77;;;22.00;99.90;;;;;;5071116;28;20206;-75
2021/07/06 02:50:54;;;;;;;10.75;9.75;;;21.90;99.90;;;;;;5070725;28;20213;-72
2021/07/06 02:53:21;;;;;;;11.70;9.32;;;22.00;99.90;;;;;;5070847;28;20238;-83
2021/07/06 02:55:48;;;;;;;6.47;3.63;;;22.00;99.90;;;;;;5070677;28;20257;-75
2021/07/06 02:58:15;;;;;;;3.35;2.70;;;21.10;99.90;;;;;;5071151;28;20303;-73
2021/07/06 03:00:42;;;;;;;4.53;2.40;;;20.20;99.90;;;;;;5070541;28;20206;-72
2021/07/06 03:03:10;;;;;;;2.80;1.75;;;19.70;99.90;;;;;;5071436;28;20202;-73
2021/07/06 03:05:39;;;;;;;3.95;1.65;;;19.40;99.90;;;;;;5071129;28;20237;-76
2021/07/06 03:08:07;;;;;;;2.30;1.50;;;19.40;99.90;;;;;;5070929;28;20268;-71
2021/07/06 03:10:36;;;;;;;2.55;1.40;;;19.30;99.90;;;;;;5070613;28;20213;-77
2021/07/06 03:13:04;;;;;;;2.38;1.40;;;19.20;99.90;;;;;;5070528;28;20213;-72
2021/07/06 03:15:32;;;;;;;2.67;1.58;;;19.20;99.90;;;;;;5070885;28;20206;-71
2021/07/06 03:18:00;;;;;;;1.88;1.20;;;19.20;99.90;;;;;;5069902;28;20288;-76
2021/07/06 03:20:28;;;;;;;3.47;2.17;;;19.30;99.90;;;;;;5070544;28;20665;-71
2021/07/06 03:22:57;;;;;;;3.53;1.35;;;19.40;99.90;;;;;;5069719;28;20205;-75
2021/07/06 03:25:26;;;;;;;2.15;1.80;;;19.40;99.90;;;;;;5070652;28;20309;-73
2021/07/06 03:27:53;;;;;;;2.25;1.13;;;19.30;99.90;;;;;;5070138;28;20210;-73
2021/07/06 03:30:22;;;;;;;2.03;1.50;;;19.40;99.90;;;;;;5070510;28;20680;-77
2021/07/06 03:32:50;;;;;;;3.60;1.52;;;19.40;99.90;;;;;;5069521;28;20210;-78
2021/07/06 03:35:17;;;;;;;2.42;1.45;;;19.40;99.90;;;;;;5070428;28;20201;-76
2021/07/06 03:37:44;;;;;;;2.63;1.75;;;19.40;99.90;;;;;;5070222;28;20202;-73
2021/07/06 03:40:13;;;;;;;2.03;1.40;;;19.40;99.90;;;;;;5070070;28;20230;-74
2021/07/06 03:42:40;;;;;;;1.73;1.33;;;19.40;99.90;;;;;;5069994;28;20665;-74
2021/07/06 03:45:09;;;;;;;1.45;1.35;;;19.40;99.90;;;;;;5070744;28;20206;-75
2021/07/06 03:47:37;;;;;;;3.10;1.30;;;19.40;99.90;;;;;;5070849;28;20206;-75
2021/07/06 03:50:06;;;;;;;3.70;1.52;;;19.40;99.90;;;;;;5069706;28;20275;-75
2021/07/06 03:52:33;;;;;;;3.17;1.45;;;19.40;99.90;;;;;;5070548;28;20268;-73
2021/07/06 03:55:00;;;;;;;2.00;1.45;;;19.40;99.90;;;;;;5070289;28;20616;-75
2021/07/06 03:57:31;;;;;;;1.30;1.20;;;19.50;99.90;;;;;;5070016;28;20673;-74
2021/07/06 04:00:00;;;;;;;5.25;1.45;;;19.50;99.90;;;;;;5069745;28;20786;-77
2021/07/06 04:02:27;;;;;;;3.78;1.40;;;19.50;99.90;;;;;;5070154;28;20264;-72
2021/07/06 04:04:56;;;;;;;5.50;2.17;;;19.60;99.90;;;;;;5069896;28;20271;-73
2021/07/06 04:07:22;;;;;;;3.70;1.85;;;19.70;99.90;;;;;;5069980;28;20210;-75
2021/07/06 04:09:49;;;;;;;1.17;1.08;;;19.70;99.90;;;;;;5070097;28;20292;-73
2021/07/06 04:12:16;;;;;;;4.07;1.52;;;19.70;99.90;;;;;;5070054;28;20614;-74
2021/07/06 04:14:45;;;;;;;4.53;1.92;;;19.70;99.90;;;;;;5069788;28;20202;-75
2021/07/06 04:17:12;;;;;;;3.00;1.80;;;19.70;99.90;;;;;;5069917;28;20229;-74
2021/07/06 04:19:39;;;;;;;6.15;1.90;;;19.70;99.90;;;;;;5070021;28;20229;-74
2021/07/06 04:22:06;;;;;;;3.85;1.90;;;19.60;99.90;;;;;;5070615;28;20255;-74
2021/07/06 04:24:33;;;;;;;4.20;1.75;;;19.50;99.90;;;;;;5069803;28;20225;-74
2021/07/06 04:27:01;;;;;;;4.05;1.80;;;19.50;99.90;;;;;;5069611;28;20739;-74
2021/07/06 04:29:28;;;;;;;2.92;2.15;;;19.50;99.90;;;;;;5069606;28;20202;-75
2021/07/06 04:31:57;;;;;;;1.73;1.60;;;19.60;99.90;;;;;;5069858;28;20210;-75
2021/07/06 04:34:24;;;;;;;2.83;1.30;;;19.50;99.90;;;;;;5069458;28;20264;-75
2021/07/06 04:36:51;;;;;;;2.97;2.30;;;19.50;99.90;;;;;;5069504;28;20605;-74
2021/07/06 04:39:18;;;;;;;3.97;2.22;;;19.60;99.90;;;;;;5069665;28;20713;-75
2021/07/06 04:41:45;;;;;;;2.80;2.28;;;19.60;99.90;;;;;;5069311;28;20210;-74
2021/07/06 04:44:12;;;;;;;2.83;1.50;;;19.50;99.90;;;;;;5069809;28;20207;-73
2021/07/06 04:46:40;;;;;;;5.95;1.90;;;19.50;99.90;;;;;;5072801;28;20256;-74
2021/07/06 04:49:08;;;;;;;5.15;1.67;;;19.60;99.90;;;;;;5073552;28;20210;-74
2021/07/06 04:51:36;;;;;;;4.45;1.77;;;19.60;99.90;;;;;;5073779;28;20206;-74
2021/07/06 04:54:03;;;;;;;3.13;1.50;;;19.50;99.90;;;;;;5072857;28;20198;-74
2021/07/06 04:56:30;;;;;;;2.72;1.83;;;19.50;99.90;;;;;;5072995;28;20437;-74
2021/07/06 04:58:57;;;;;;;2.25;1.60;;;19.40;99.90;;;;;;5072671;28;20241;-75
2021/07/06 05:01:24;;;;;;;2.40;1.13;;;19.40;99.90;;;;;;5072887;28;20209;-75
2021/07/06 05:03:52;;;;;;;1.75;1.40;;;19.40;99.90;;;;;;5072359;28;20205;-75
2021/07/06 05:06:21;;;;;;;4.10;1.88;;;19.40;99.90;;;;;;5073259;28;20263;-77
2021/07/06 05:08:48;;;;;;;3.80;2.03;;;19.30;99.90;;;;;;5072710;28;20571;-75
2021/07/06 05:11:15;;;;;;;3.85;1.92;;;19.30;99.90;;;;;;5059267;28;20260;-73
2021/07/06 05:13:42;;;;;;;3.25;1.00;;;19.30;99.90;;;;;;5072856;28;20263;-72
2021/07/06 05:16:09;;;;;;;10.32;1.58;;;19.20;99.90;;;;;;5073073;28;20259;-73
2021/07/06 05:18:36;;;;;;;4.60;1.30;;;19.30;99.90;;;;;;5072997;28;20210;-77
2021/07/06 05:21:03;;;;;;;1.88;1.70;;;19.20;99.90;;;;;;5072450;28;20255;-76
2021/07/06 05:23:32;;;;;;;3.40;1.90;;;19.20;99.90;;;;;;5072894;28;20218;-74
2021/07/06 05:25:59;;;;;;;4.13;1.85;;;19.20;99.90;;;;;;5070760;28;20742;-72
2021/07/06 05:28:26;;;;;;;2.22;1.20;;;19.30;99.90;;;;;;5072193;28;20271;-76
2021/07/06 05:30:53;;;;;;;4.47;1.95;;;19.20;99.90;;;;;;5073246;28;20202;-75
2021/07/06 05:33:20;;;;;;;2.90;1.45;;;19.10;99.90;;;;;;5076359;28;20202;-77
2021/07/06 05:35:47;;;;;;;2.50;1.70;;;19.10;99.90;;;;;;5076123;28;20206;-77
2021/07/06 05:38:14;;;;;;;2.85;1.23;;;19.10;99.90;;;;;;5079306;28;20210;-77
2021/07/06 05:40:44;;;;;;;4.45;1.85;;;19.10;99.90;;;;;;5078286;28;20229;-73
2021/07/06 05:43:11;;;;;;;3.25;1.40;;;19.10;99.90;;;;;;5081369;28;20216;-76
2021/07/06 05:45:38;;;;;;;2.75;1.33;;;19.10;99.90;;;;;;5082928;28;20560;-72
2021/07/06 05:48:06;;;;;;;1.10;0.90;;;19.20;99.90;;;;;;5090910;28;20733;-77
2021/07/06 05:50:33;;;;;;;3.97;1.55;;;19.20;99.90;;;;;;5078011;28;20202;-74
2021/07/06 05:53:00;;;;;;;3.20;1.70;;;19.30;99.90;;;;;;5080803;28;21068;-75
2021/07/06 05:55:27;;;;;;;2.33;1.52;;;19.40;99.90;;;;;;5081784;28;20731;-73
2021/07/06 05:57:55;;;;;;;4.20;1.70;;;19.40;99.90;;;;;;5073547;28;20202;-73
2021/07/06 06:00:22;;;;;;;4.43;1.30;;;19.50;99.90;;;;;;5076047;28;20765;-72
2021/07/06 06:02:50;;;;;;;6.10;1.55;;;19.50;99.90;;;;;;5076521;28;20252;-74
2021/07/06 06:05:17;;;;;;;4.82;2.13;;;19.60;99.90;;;;;;5083233;28;20244;-74
2021/07/06 06:07:46;;;;;;;5.18;1.50;;;19.50;99.90;;;;;;5078892;28;20256;-75
2021/07/06 06:10:13;;;;;;;1.80;1.42;;;19.50;99.90;;;;;;5071476;28;20256;-75
2021/07/06 06:12:40;;;;;;;4.15;1.23;;;19.60;99.90;;;;;;5071057;28;20653;-73
2021/07/06 06:15:10;;;;;;;3.83;1.42;;;19.60;99.90;;;;;;5068908;28;20730;-73
2021/07/06 06:17:39;;;;;;;3.67;1.52;;;19.50;99.90;;;;;;5077554;28;20203;-74
2021/07/06 06:20:08;;;;;;;4.22;1.58;;;19.60;99.90;;;;;;5071447;28;20742;-73
2021/07/06 06:22:35;;;;;;;4.05;1.60;;;19.70;99.90;;;;;;5072675;28;20206;-73
2021/07/06 06:25:03;;;;;;;3.40;1.42;;;19.80;99.90;;;;;;5073370;28;20218;-74
2021/07/06 06:27:30;;;;;;;3.55;1.25;;;19.90;99.90;;;;;;5084493;28;20218;-74
2021/07/06 06:29:58;;;;;;;3.00;1.60;;;20.00;99.90;;;;;;5066114;28;20203;-73
2021/07/06 06:32:26;;;;;;;5.00;1.60;;;20.00;99.90;;;;;;5068940;28;20206;-74
2021/07/06 06:34:53;;;;;;;4.70;1.85;;;20.00;99.90;;;;;;5079896;28;20202;-74
2021/07/06 06:37:20;;;;;;;5.13;1.75;;;19.90;99.90;;;;;;5071569;28;20259;-74
2021/07/06 06:39:47;;;;;;;3.85;1.60;;;19.90;99.90;;;;;;5082776;28;20221;-73
2021/07/06 06:42:14;;;;;;;1.92;1.38;;;19.90;99.90;;;;;;5071681;28;20215;-75
2021/07/06 06:44:41;;;;;;;2.97;1.23;;;19.90;99.90;;;;;;5074341;28;20210;-75
2021/07/06 06:47:08;;;;;;;2.60;1.52;;;19.90;99.90;;;;;;5074602;28;20260;-74
2021/07/06 06:49:36;;;;;;;6.35;1.35;;;20.10;99.90;;;;;;5075567;28;20253;-75
2021/07/06 06:52:04;;;;;;;2.58;1.38;;;20.20;99.90;;;;;;5074751;28;20668;-75
2021/07/06 06:54:33;;;;;;;4.90;1.27;;;20.30;99.90;;;;;;5070692;28;20287;-74
2021/07/06 06:57:01;;;;;;;2.00;0.85;;;20.30;99.90;;;;;;5066012;28;20205;-76
2021/07/06 06:59:28;;;;;;;5.57;1.33;;;20.40;99.90;;;;;;5071853;28;20248;-77
2021/07/06 07:04:37;;;;;;;6.40;1.73;;;20.40;99.90;;;;;;5076674;28;20202;-75
2021/07/06 07:07:05;;;;;;;2.10;1.45;;;20.50;99.90;;;;;;5069579;28;20248;-75
2021/07/06 07:09:32;;;;;;;3.92;1.83;;;20.50;99.90;;;;;;5071385;28;20206;-74
2021/07/06 07:11:59;;;;;;;3.85;1.63;;;20.50;99.90;;;;;;5070006;28;20259;-75
2021/07/06 07:14:25;;;;;;;7.03;2.47;;;20.60;99.90;;;;;;5070133;28;20202;-76
2021/07/06 07:16:52;;;;;;;4.30;1.80;;;20.60;99.90;;;;;;5070280;28;20206;-75
2021/07/06 07:19:19;;;;;;;8.02;2.00;;;20.70;99.90;;;;;;5069618;28;20263;-76
2021/07/06 07:21:48;;;;;;;4.63;1.35;;;20.70;99.90;;;;;;5070207;28;20248;-77
2021/07/06 07:24:16;;;;;;;4.50;1.67;;;20.50;99.90;;;;;;5070107;28;20233;-77
2021/07/06 07:26:43;;;;;;;3.00;1.17;;;20.50;99.90;;;;;;5070279;28;20206;-76
2021/07/06 07:29:11;;;;;;;2.92;1.60;;;20.60;99.90;;;;;;5070129;28;20217;-77
2021/07/06 07:31:38;;;;;;;4.60;1.52;;;20.70;99.90;;;;;;5058847;28;20202;-77
2021/07/06 07:34:05;;;;;;;5.35;1.88;;;20.70;99.90;;;;;;5070646;28;20615;-77
2021/07/06 07:36:32;;;;;;;3.67;1.55;;;20.80;99.90;;;;;;5068977;28;20252;-77
2021/07/06 07:39:01;;;;;;;5.68;2.28;;;21.00;99.90;;;;;;5070063;28;20626;-77
2021/07/06 07:41:28;;;;;;;4.40;1.63;;;21.00;99.90;;;;;;5070467;28;20657;-77
2021/07/06 07:43:55;;;;;;;7.05;2.03;;;20.90;99.90;;;;;;5069772;28;20202;-78
2021/07/06 07:46:22;;;;;;;4.40;1.27;;;21.00;99.90;;;;;;5070231;28;20287;-78
2021/07/06 07:48:49;;;;;;;4.60;2.15;;;20.90;99.90;;;;;;5069852;28;20217;-77
2021/07/06 07:51:17;;;;;;;5.22;1.67;;;21.00;99.90;;;;;;5069558;28;20210;-78
2021/07/06 07:53:44;;;;;;;7.07;1.58;;;21.10;99.90;;;;;;5068652;28;20202;-73
2021/07/06 07:56:13;;;;;;;2.10;1.40;;;21.10;99.90;;;;;;5070248;28;20275;-73
2021/07/06 07:58:41;;;;;;;4.93;1.80;;;21.20;99.90;;;;;;5069454;28;20248;-74
2021/07/06 08:01:08;;;;;;;5.63;1.80;;;21.20;99.90;;;;;;5070708;28;20230;-73
2021/07/06 08:03:35;;;;;;;3.40;1.90;;;21.10;99.90;;;;;;5070232;28;20202;-74
2021/07/06 08:06:02;;;;;;;4.72;1.98;;;20.90;99.90;;;;;;5069736;28;20252;-74
2021/07/06 08:08:29;;;;;;;2.97;1.73;;;21.00;99.90;;;;;;5069825;28;20256;-77
2021/07/06 08:10:58;;;;;;;4.75;1.83;;;20.90;99.90;;;;;;5068704;28;20591;-76
2021/07/06 08:13:27;;;;;;;3.85;1.83;;;20.90;99.90;;;;;;5067883;28;20677;-76
2021/07/06 08:15:55;;;;;;;9.48;1.73;;;21.00;99.90;;;;;;5067824;28;20795;-76
2021/07/06 08:18:22;;;;;;;2.15;1.45;;;21.00;99.90;;;;;;5069104;28;20214;-80
2021/07/06 08:20:49;;;;;;;3.75;1.48;;;21.00;99.90;;;;;;5072327;28;20283;-81
2021/07/06 08:23:17;;;;;;;5.20;1.60;;;21.20;99.90;;;;;;5074150;28;20206;-81
2021/07/06 08:25:45;;;;;;;3.92;1.90;;;21.30;99.90;;;;;;5072918;28;20218;-77
2021/07/06 08:28:12;;;;;;;5.70;1.80;;;21.30;99.90;;;;;;5073565;28;20210;-76
2021/07/06 08:30:40;;;;;;;5.10;1.67;;;21.30;99.90;;;;;;5074033;28;20206;-76
2021/07/06 08:33:07;;;;;;;6.45;1.42;;;21.20;99.90;;;;;;5073087;28;20213;-78
2021/07/06 08:35:34;;;;;;;2.53;1.42;;;21.30;99.90;;;;;;5073854;28;20206;-77
2021/07/06 08:38:01;;;;;;;4.55;2.40;;;21.30;99.90;;;;;;5072820;28;20697;-78
2021/07/06 08:40:28;;;;;;;4.20;2.63;;;21.20;99.90;;;;;;5072713;28;20275;-77
2021/07/06 08:42:59;;;;;;;6.57;2.08;;;21.20;99.90;;;;;;5081902;28;20288;-78
2021/07/06 08:45:27;;;;;;;4.38;1.90;;;21.30;99.90;;;;;;5088529;28;20229;-77
2021/07/06 08:47:56;;;;;;;6.10;3.53;;;21.50;99.90;;;;;;5090743;28;20258;-76
2021/07/06 08:50:24;;;;;;;4.63;2.38;;;21.60;99.90;;;;;;5085706;28;20205;-77
2021/07/06 08:52:52;;;;;;;4.78;1.40;;;21.80;99.90;;;;;;5091803;28;20691;-76
2021/07/06 08:55:20;;;;;;;4.68;1.58;;;22.20;99.90;;;;;;5089811;28;20201;-79
2021/07/06 08:57:48;;;;;;;6.15;2.25;;;22.40;99.90;;;;;;5091606;28;20292;-76
2021/07/06 09:00:17;;;;;;;3.20;2.05;;;22.50;99.90;;;;;;5082991;28;20225;-78
2021/07/06 09:02:57;;;;;;;4.95;1.75;;;22.60;99.90;;;;;;5087435;28;20262;-77
2021/07/06 09:05:24;;;;;;;2.83;1.40;;;22.70;99.90;;;;;;5082369;28;20262;-78
2021/07/06 09:07:51;;;;;;;7.00;1.70;;;22.80;99.90;;;;;;5082380;28;20205;-78
2021/07/06 09:10:20;;;;;;;9.70;2.25;;;22.70;99.90;;;;;;5084127;28;20586;-79
2021/07/06 09:12:48;;;;;;;5.43;2.10;;;22.60;99.90;;;;;;5083986;28;20288;-77
2021/07/06 09:15:27;;;;;;;11.20;2.60;;;22.50;99.90;;;;;;5081796;28;20212;-77
2021/07/06 09:18:07;;;;;;;3.88;1.90;;;22.30;99.90;;;;;;5085831;28;20285;-77
2021/07/06 09:20:35;;;;;;;2.72;1.33;;;21.90;99.90;;;;;;5078403;28;20217;-82
2021/07/06 09:23:21;;;;;;;5.60;2.28;;;21.80;99.90;;;;;;5084568;28;20750;-78
2021/07/06 09:25:48;;;;;;;4.05;1.95;;;21.60;99.90;;;;;;5078054;28;20255;-80
2021/07/06 09:28:22;;;;;;;4.85;1.52;;;21.60;99.90;;;;;;5090384;28;20205;-79
2021/07/06 09:30:50;;;;;;;3.47;2.42;;;21.60;99.90;;;;;;5090527;28;20223;-79
2021/07/06 09:33:28;;;;;;;5.82;2.22;;;21.60;99.90;;;;;;5076985;28;20736;-78
2021/07/06 09:35:55;;;;;;;6.07;2.38;;;21.80;99.90;;;;;;5088637;28;20625;-77
2021/07/06 09:38:22;;;;;;;3.33;2.05;;;21.90;99.90;;;;;;5083533;28;20210;-78
2021/07/06 09:40:51;;;;;;;7.25;2.75;;;21.80;99.90;;;;;;5082851;28;20229;-79
2021/07/06 09:43:23;;;;;;;5.43;1.92;;;21.70;99.90;;;;;;5081147;28;20217;-83
2021/07/06 09:46:04;;;;;;;7.22;1.60;;;21.70;99.90;;;;;;5082851;28;20206;-82
2021/07/06 09:48:34;;;;;;;5.45;1.98;;;21.60;99.90;;;;;;5089107;28;20618;-80
2021/07/06 09:51:12;;;;;;;5.32;1.92;;;21.60;99.90;;;;;;5086182;28;20738;-78
2021/07/06 09:53:40;;;;;;;3.22;1.92;;;21.40;99.90;;;;;;5084711;28;20718;-82
2021/07/06 09:56:09;;;;;;;3.67;1.92;;;21.40;99.90;;;;;;5089599;28;20689;-76
2021/07/06 09:58:51;;;;;;;5.68;1.85;;;21.30;99.90;;;;;;5089909;28;20259;-83
2021/07/06 10:01:17;;;;;;;8.38;2.00;;;21.40;99.90;;;;;;5079469;28;20262;-82
2021/07/06 10:03:48;;;;;;;6.20;1.60;;;21.40;99.90;;;;;;5083680;28;20258;-81
2021/07/06 10:06:15;;;;;;;6.40;2.03;;;21.50;99.90;;;;;;5090635;28;20625;-80
2021/07/06 10:08:43;;;;;;;3.60;2.03;;;21.70;99.90;;;;;;5078234;28;20206;-82
2021/07/06 10:11:10;;;;;;;5.05;1.75;;;22.00;99.90;;;;;;5085589;28;20255;-72
2021/07/06 10:13:37;;;;;;;4.25;1.63;;;22.30;99.90;;;;;;5080841;28;20209;-77
2021/07/06 10:16:05;;;;;;;2.72;1.70;;;22.70;99.90;;;;;;5071406;28;20655;-78
2021/07/06 10:18:33;;;;;;;5.95;2.00;;;22.70;99.90;;;;;;5070841;28;20696;-79
2021/07/06 10:21:02;;;;;;;5.40;1.95;;;22.80;99.90;;;;;;5070704;28;20265;-78
2021/07/06 10:23:30;;;;;;;7.22;2.30;;;23.20;99.90;;;;;;5070667;28;20681;-79
2021/07/06 10:25:59;;;;;;;5.82;2.65;;;23.30;99.90;;;;;;5080258;28;20213;-83
2021/07/06 10:28:28;;;;;;;4.25;1.63;;;23.90;99.90;;;;;;5088657;28;20202;-77
2021/07/06 10:30:55;;;;;;;2.78;1.58;;;23.80;99.90;;;;;;5078620;28;20263;-78
2021/07/06 10:33:30;;;;;;;4.82;1.90;;;24.60;99.90;;;;;;5071414;28;20210;-79
2021/07/06 10:35:58;;;;;;;6.30;1.58;;;24.30;99.90;;;;;;5070820;28;20347;-76
2021/07/06 10:38:44;;;;;;;4.72;2.28;;;23.90;99.90;;;;;;5070302;28;20626;-79
2021/07/06 10:41:19;;;;;;;5.03;1.73;;;24.10;99.90;;;;;;5069933;28;20260;-77
2021/07/06 10:43:57;;;;;;;4.50;2.10;;;24.10;99.90;;;;;;5069550;28;20207;-77
2021/07/06 10:46:43;;;;;;;9.10;2.03;;;23.80;99.90;;;;;;5071218;28;20206;-73
2021/07/06 10:49:12;;;;;;;4.07;1.58;;;24.00;99.90;;;;;;5060487;28;20599;-72
2021/07/06 10:52:01;;;;;;;4.55;1.73;;;23.70;99.90;;;;;;5070495;28;20212;-77
2021/07/06 10:54:35;;;;;;;7.85;2.38;;;23.10;99.90;;;;;;5060757;28;20206;-78
2021/07/06 10:57:23;;;;;;;2.47;1.10;;;22.70;99.90;;;;;;5070275;28;20206;-78
2021/07/06 10:59:55;;;;;;;2.58;1.40;;;23.10;99.90;;;;;;5070628;28;20665;-78
2021/07/06 11:02:24;;;;;;;2.33;1.75;;;23.80;99.90;;;;;;5070736;28;20287;-79
2021/07/06 11:07:53;;;;;;;4.90;1.77;;;24.00;99.90;;;;;;5070148;28;20343;-78
2021/07/06 11:10:31;;;;;;;2.75;1.83;;;23.90;99.90;;;;;;5070645;28;20205;-79
2021/07/06 11:13:22;;;;;;;5.10;1.75;;;23.70;99.90;;;;;;5059774;28;20201;-73
2021/07/06 11:15:50;;;;;;;4.85;1.35;;;23.40;99.90;;;;;;5070172;28;20385;-79
2021/07/06 11:18:17;;;;;;;3.70;1.90;;;23.90;99.90;;;;;;5072292;28;20288;-72
2021/07/06 11:20:46;;;;;;;3.83;1.48;;;25.20;99.90;;;;;;5080489;28;20233;-80
2021/07/06 11:23:18;;;;;;;6.60;2.15;;;25.60;99.90;;;;;;5078475;28;20209;-80
2021/07/06 11:25:48;;;;;;;6.20;2.58;;;25.20;99.90;;;;;;5074861;28;20596;-80
2021/07/06 11:28:19;;;;;;;5.43;1.75;;;25.00;99.90;;;;;;5082524;28;20695;-80
2021/07/06 11:30:48;;;;;;;4.53;1.92;;;24.90;99.90;;;;;;5080380;28;20202;-75
2021/07/06 11:33:16;;;;;;;2.85;1.20;;;24.30;99.90;;;;;;5083795;28;20710;-84
2021/07/06 11:35:45;;;;;;;2.83;1.48;;;24.50;99.90;;;;;;5084848;28;20197;-73
2021/07/06 11:38:14;;;;;;;2.80;1.80;;;24.50;99.90;;;;;;5078113;28;20259;-78
2021/07/06 11:40:43;;;;;;;3.03;1.73;;;24.30;99.90;;;;;;5080218;28;20202;-78
2021/07/06 11:43:14;;;;;;;4.40;2.00;;;24.50;99.90;;;;;;5070906;28;20222;-69
2021/07/06 11:45:42;;;;;;;4.10;1.80;;;24.60;99.90;;;;;;5070264;28;20615;-80
2021/07/06 11:48:14;;;;;;;3.38;1.95;;;24.90;99.90;;;;;;5071329;28;20210;-80
2021/07/06 11:50:43;;;;;;;5.93;1.92;;;25.10;99.90;;;;;;5070155;28;20205;-71
2021/07/06 11:53:11;;;;;;;3.40;1.52;;;24.60;99.90;;;;;;5072268;28;20259;-72
2021/07/06 11:55:40;;;;;;;5.70;2.15;;;24.50;99.90;;;;;;5075844;28;20206;-79
2021/07/06 11:58:10;;;;;;;4.00;1.85;;;24.70;99.90;;;;;;5078343;28;20198;-82
2021/07/06 12:00:40;;;;;;;4.05;1.98;;;24.80;99.90;;;;;;5077952;28;20700;-83
2021/07/06 12:03:25;;;;;;;5.57;1.40;;;24.40;99.90;;;;;;5074491;28;20604;-84
2021/07/06 12:05:54;;;;;;;5.15;2.25;;;24.20;99.90;;;;;;5076450;28;20213;-85
2021/07/06 12:08:22;;;;;;;4.68;1.95;;;24.10;99.90;;;;;;5075760;28;20623;-84
2021/07/06 12:10:57;;;;;;;3.15;1.38;;;23.70;99.90;;;;;;5083044;28;20209;-80
2021/07/06 12:13:25;;;;;;;2.20;1.48;;;23.80;99.90;;;;;;5073646;28;20751;-82
2021/07/06 12:15:56;;;;;;;7.55;3.00;;;23.90;99.90;;;;;;5073782;28;20612;-74
2021/07/06 12:18:23;;;;;;;5.88;2.13;;;23.90;99.90;;;;;;5071663;28;20217;-87
2021/07/06 12:20:58;;;;;;;3.40;1.60;;;24.10;99.90;;;;;;5077585;28;20714;-80
2021/07/06 12:23:26;;;;;;;2.90;1.40;;;24.00;99.90;;;;;;5086421;28;20684;-82
2021/07/06 12:25:58;;;;;;;3.03;1.67;;;24.20;99.90;;;;;;5092294;28;20254;-80
2021/07/06 12:28:26;;;;;;;3.63;1.92;;;23.50;99.90;;;;;;5074049;28;20222;-83
2021/07/06 12:31:32;;;;;;;4.25;1.88;;;23.30;99.90;;;;;;5073518;28;20263;-82
2021/07/06 12:34:11;;;;;;;3.22;1.55;;;23.10;99.90;;;;;;5070862;28;20267;-81
2021/07/06 12:36:41;;;;;;;4.28;2.50;;;23.00;99.90;;;;;;5081629;28;20208;-70
2021/07/06 12:39:27;;;;;;;2.90;1.60;;;22.80;99.90;;;;;;5092480;28;20209;-79
2021/07/06 12:41:56;;;;;;;23.63;2.33;;;22.90;99.90;;;;;;5072145;28;20244;-78
2021/07/06 12:44:32;;;;;;;5.10;2.95;;;23.10;99.90;;;;;;5073045;28;20210;-75
2021/07/06 12:47:13;;;;;;;4.93;2.03;;;22.90;99.90;;;;;;5078696;28;20214;-80
2021/07/06 12:49:44;;;;;;;7.10;1.75;;;23.00;99.90;;;;;;5082576;28;20252;-73
2021/07/06 12:52:11;;;;;;;6.43;2.65;;;23.00;99.90;;;;;;5073147;28;20207;-79
2021/07/06 12:54:40;;;;;;;7.30;2.35;;;23.00;99.90;;;;;;5073233;28;20282;-80
2021/07/06 12:57:11;;;;;;;6.90;2.42;;;23.30;99.90;;;;;;5069388;28;20206;-74
2021/07/06 12:59:38;;;;;;;3.15;1.65;;;23.50;99.90;;;;;;5073646;28;20251;-77